createdAt,value
2018-02-24T00:00:33.485Z,26.58
2018-02-24T00:03:03.850Z,28.10
2018-02-24T00:05:34.291Z,26.55
2018-02-24T00:08:03.603Z,27.77
2018-02-24T00:10:32.906Z,26.10
2018-02-24T00:13:02.258Z,25.60
2018-02-24T00:15:31.589Z,25.27
2018-02-24T00:18:01.954Z,27.73
2018-02-24T00:20:31.294Z,28.12
2018-02-24T00:23:00.641Z,27.62
2018-02-24T00:25:31.041Z,27.20
2018-02-24T00:28:00.477Z,25.90
2018-02-24T00:30:30.798Z,30.70
2018-02-24T00:33:00.050Z,31.12
2018-02-24T00:35:28.966Z,29.37
2018-02-24T00:37:57.915Z,29.45
2018-02-24T00:40:27.060Z,27.50
2018-02-24T00:42:55.787Z,31.98
2018-02-24T00:45:24.498Z,29.33
2018-02-24T00:47:54.958Z,31.08
2018-02-24T00:50:24.457Z,29.42
2018-02-24T00:52:53.951Z,27.52
2018-02-24T00:55:23.142Z,29.05
2018-02-24T00:57:53.056Z,29.02
2018-02-24T01:00:22.861Z,28.00
2018-02-24T01:02:51.480Z,27.15
2018-02-24T01:05:20.849Z,26.42
2018-02-24T01:07:50.989Z,28.38
2018-02-24T01:10:20.278Z,26.52
2018-02-24T01:12:49.630Z,25.80
2018-02-24T01:15:18.991Z,28.10
2018-02-24T01:17:48.333Z,28.05
2018-02-24T01:20:16.949Z,26.65
2018-02-24T01:22:46.039Z,24.48
2018-02-24T01:25:14.686Z,25.65
2018-02-24T01:27:43.802Z,29.55
2018-02-24T01:30:12.576Z,28.50
2018-02-24T01:32:41.302Z,28.95
2018-02-24T01:35:09.974Z,28.42
2018-02-24T01:37:39.184Z,26.00
2018-02-24T01:40:08.518Z,26.90
2018-02-24T01:42:38.141Z,25.55
2018-02-24T01:45:07.215Z,28.35
2018-02-24T01:47:36.594Z,23.62
2018-02-24T01:50:05.944Z,25.33
2018-02-24T01:52:35.342Z,25.48
2018-02-24T01:55:04.662Z,26.37
2018-02-24T01:57:33.293Z,28.95
2018-02-24T02:00:02.359Z,28.73
2018-02-24T02:02:31.707Z,27.30
2018-02-24T02:05:01.055Z,25.70
2018-02-24T02:07:30.427Z,27.60
2018-02-24T02:09:59.791Z,25.62
2018-02-24T02:12:29.137Z,26.25
2018-02-24T02:14:58.764Z,25.02
2018-02-24T02:17:28.139Z,25.58
2018-02-24T02:19:57.205Z,27.77
2018-02-24T02:22:26.562Z,25.30
2018-02-24T02:24:55.937Z,25.10
2018-02-24T02:27:25.302Z,26.40
2018-02-24T02:29:54.661Z,25.50
2018-02-24T02:32:24.285Z,25.30
2018-02-24T02:34:53.026Z,27.73
2018-02-24T02:37:22.716Z,26.85
2018-02-24T02:39:52.087Z,26.60
2018-02-24T02:42:21.739Z,26.95
2018-02-24T02:44:50.841Z,25.17
2018-02-24T02:47:20.185Z,26.05
2018-02-24T02:49:49.650Z,27.17
2018-02-24T02:52:18.888Z,26.60
2018-02-24T02:57:21.671Z,26.58
2018-02-24T02:59:51.008Z,28.02
2018-02-24T03:02:20.632Z,29.67
2018-02-24T03:04:49.735Z,27.25
2018-02-24T03:07:19.095Z,30.45
2018-02-24T03:09:48.465Z,30.10
2018-02-24T03:12:17.820Z,29.35
2018-02-24T03:14:47.170Z,26.73
2018-02-24T03:17:16.540Z,25.88
2018-02-24T03:19:46.901Z,24.55
2018-02-24T03:22:16.253Z,24.10
2018-02-24T03:24:45.753Z,23.40
2018-02-24T03:27:15.982Z,23.17
2018-02-24T03:29:45.354Z,23.45
2018-02-24T03:32:14.718Z,22.40
2018-02-24T03:34:44.102Z,21.83
2018-02-24T03:37:13.453Z,22.48
2018-02-24T03:39:42.041Z,23.65
2018-02-24T03:42:10.678Z,23.90
2018-02-24T03:44:39.338Z,21.10
2018-02-24T03:47:08.126Z,21.85
2018-02-24T03:49:37.218Z,23.30
2018-02-24T03:52:06.566Z,22.13
2018-02-24T03:54:36.033Z,22.85
2018-02-24T03:57:05.629Z,21.12
2018-02-24T03:59:34.719Z,24.30
2018-02-24T04:02:04.042Z,22.92
2018-02-24T04:04:32.662Z,22.48
2018-02-24T04:07:01.740Z,19.70
2018-02-24T04:09:31.382Z,24.87
2018-02-24T04:12:00.590Z,25.65
2018-02-24T04:14:29.811Z,27.37
2018-02-24T04:16:59.170Z,33.38
2018-02-24T04:19:27.799Z,34.10
2018-02-24T04:21:56.902Z,34.80
2018-02-24T04:24:26.249Z,36.10
2018-02-24T04:26:55.602Z,36.13
2018-02-24T04:29:24.956Z,35.45
2018-02-24T04:31:54.335Z,33.90
2018-02-24T04:34:23.682Z,35.30
2018-02-24T04:36:53.268Z,33.95
2018-02-24T04:39:23.412Z,32.95
2018-02-24T04:41:52.773Z,35.30
2018-02-24T04:44:22.122Z,34.88
2018-02-24T04:46:51.470Z,32.97
2018-02-24T04:49:20.839Z,36.55
2018-02-24T04:51:51.908Z,36.28
2018-02-24T04:54:20.850Z,35.00
2018-02-24T04:56:49.925Z,35.78
2018-02-24T04:59:19.278Z,35.67
2018-02-24T05:01:48.647Z,31.73
2018-02-24T05:04:18.302Z,35.05
2018-02-24T05:06:47.370Z,32.67
2018-02-24T05:09:16.082Z,34.30
2018-02-24T05:11:45.817Z,32.38
2018-02-24T05:14:14.736Z,33.13
2018-02-24T05:16:44.828Z,33.55
2018-02-24T05:19:14.194Z,31.33
2018-02-24T05:21:43.551Z,34.28
2018-02-24T05:24:12.919Z,31.60
2018-02-24T05:26:42.258Z,33.00
2018-02-24T05:29:11.890Z,31.87
2018-02-24T05:31:40.992Z,30.33
2018-02-24T05:34:09.925Z,30.62
2018-02-24T05:36:38.898Z,29.37
2018-02-24T05:39:08.062Z,30.83
2018-02-24T05:41:37.694Z,30.35
2018-02-24T05:44:06.880Z,31.58
2018-02-24T05:46:36.154Z,31.87
2018-02-24T05:49:05.498Z,31.55
2018-02-24T05:51:34.883Z,32.78
2018-02-24T05:54:04.476Z,31.33
2018-02-24T05:56:34.590Z,36.22
2018-02-24T05:59:03.983Z,34.10
2018-02-24T06:01:33.331Z,32.65
2018-02-24T06:04:02.698Z,31.27
2018-02-24T06:06:32.061Z,31.80
2018-02-24T06:09:01.430Z,33.80
2018-02-24T06:11:31.101Z,33.95
2018-02-24T06:14:00.766Z,32.63
2018-02-24T06:16:29.830Z,32.92
2018-02-24T06:18:58.900Z,31.98
2018-02-24T06:21:28.300Z,32.25
2018-02-24T06:23:57.610Z,32.60
2018-02-24T06:26:26.236Z,33.28
2018-02-24T06:28:55.335Z,32.17
2018-02-24T06:31:24.693Z,34.95
2018-02-24T06:33:54.056Z,33.58
2018-02-24T06:36:22.692Z,33.78
2018-02-24T06:38:52.772Z,36.67
2018-02-24T06:41:21.431Z,36.97
2018-02-24T06:43:50.791Z,34.05
2018-02-24T06:46:19.869Z,36.35
2018-02-24T06:48:49.298Z,36.42
2018-02-24T06:51:19.611Z,37.17
2018-02-24T06:53:48.983Z,36.03
2018-02-24T06:56:18.554Z,32.53
2018-02-24T06:58:48.726Z,35.78
2018-02-24T07:01:18.082Z,35.42
2018-02-24T07:03:47.431Z,30.45
2018-02-24T07:06:16.941Z,34.10
2018-02-24T07:08:46.163Z,37.55
2018-02-24T07:11:15.510Z,38.47
2018-02-24T07:13:45.156Z,35.67
2018-02-24T07:16:14.238Z,33.67
2018-02-24T07:18:43.593Z,34.63
2018-02-24T07:21:12.946Z,32.90
2018-02-24T07:23:42.322Z,34.08
2018-02-24T07:26:11.967Z,37.20
2018-02-24T07:28:41.043Z,37.85
2018-02-24T07:31:10.629Z,34.00
2018-02-24T07:33:40.767Z,35.25
2018-02-24T07:36:10.150Z,33.50
2018-02-24T07:38:39.485Z,36.80
2018-02-24T07:41:08.854Z,37.65
2018-02-24T07:43:38.210Z,34.85
2018-02-24T07:46:07.566Z,35.08
2018-02-24T07:48:36.989Z,38.42
2018-02-24T07:51:06.604Z,34.50
2018-02-24T07:53:35.651Z,34.33
2018-02-24T07:56:04.970Z,36.28
2018-02-24T07:58:34.323Z,35.92
2018-02-24T08:01:03.683Z,35.63
2018-02-24T08:03:33.051Z,36.90
2018-02-24T08:06:02.386Z,36.75
2018-02-24T08:08:31.756Z,36.70
2018-02-24T08:11:00.362Z,35.15
2018-02-24T08:13:29.151Z,35.88
2018-02-24T08:15:58.099Z,37.63
2018-02-24T08:18:27.256Z,35.05
2018-02-24T08:20:56.522Z,38.25
2018-02-24T08:23:25.882Z,39.72
2018-02-24T08:25:55.241Z,38.88
2018-02-24T08:28:25.682Z,37.35
2018-02-24T08:30:54.966Z,38.65
2018-02-24T08:33:25.400Z,38.80
2018-02-24T08:35:54.673Z,34.00
2018-02-24T08:38:24.032Z,37.85
2018-02-24T08:40:53.378Z,34.78
2018-02-24T08:43:22.724Z,34.70
2018-02-24T08:45:52.074Z,39.25
2018-02-24T08:48:21.650Z,36.72
2018-02-24T08:50:51.134Z,37.92
2018-02-24T08:53:20.406Z,35.50
2018-02-24T08:55:49.585Z,37.88
2018-02-24T08:58:18.817Z,34.28
2018-02-24T09:00:48.158Z,38.42
2018-02-24T09:03:19.333Z,36.60
2018-02-24T09:11:54.241Z,33.35
2018-02-24T09:17:17.280Z,37.70
2018-02-24T09:19:47.507Z,35.92
2018-02-24T09:22:16.847Z,32.20
2018-02-24T09:24:47.513Z,35.75
2018-02-24T09:27:16.561Z,35.83
2018-02-24T09:29:46.850Z,34.22
2018-02-24T09:32:18.975Z,35.72
2018-02-24T09:34:48.919Z,35.78
2018-02-24T09:37:18.065Z,37.00
2018-02-24T09:39:48.363Z,33.90
2018-02-24T09:42:17.704Z,35.67
2018-02-24T09:44:47.035Z,33.63
2018-02-24T09:47:16.755Z,36.22
2018-02-24T09:49:46.738Z,34.17
2018-02-24T09:52:15.349Z,36.80
2018-02-24T09:54:44.429Z,36.05
2018-02-24T09:57:13.789Z,36.10
2018-02-24T09:59:42.566Z,32.63
2018-02-24T10:02:11.684Z,35.15
2018-02-24T10:04:40.814Z,34.00
2018-02-24T10:07:10.179Z,36.03
2018-02-24T10:09:39.545Z,34.65
2018-02-24T10:12:08.859Z,35.38
2018-02-24T10:14:37.586Z,35.42
2018-02-24T10:17:06.554Z,37.25
2018-02-24T10:19:36.906Z,34.28
2018-02-24T10:22:06.257Z,35.95
2018-02-24T10:24:35.006Z,34.90
2018-02-24T10:27:04.204Z,34.70
2018-02-24T10:29:33.294Z,36.97
2018-02-24T10:32:02.635Z,35.15
2018-02-24T10:34:32.266Z,34.15
2018-02-24T10:37:01.013Z,35.17
2018-02-24T10:39:29.759Z,38.08
2018-02-24T10:41:58.543Z,31.42
2018-02-24T10:44:27.521Z,39.20
2018-02-24T10:46:56.255Z,38.65
2018-02-24T10:49:25.206Z,38.10
2018-02-24T10:51:54.381Z,37.00
2018-02-24T10:54:23.091Z,36.30
2018-02-24T10:56:52.774Z,39.08
2018-02-24T10:59:22.543Z,38.22
2018-02-24T11:01:51.274Z,39.47
2018-02-24T11:04:20.222Z,39.83
2018-02-24T11:06:48.977Z,40.53
2018-02-24T11:09:18.053Z,39.70
2018-02-24T11:11:46.841Z,39.83
2018-02-24T11:14:16.570Z,36.30
2018-02-24T11:16:45.319Z,39.08
2018-02-24T11:19:14.258Z,35.90
2018-02-24T11:21:42.954Z,35.63
2018-02-24T11:24:12.864Z,38.28
2018-02-24T11:26:41.622Z,37.17
2018-02-24T11:29:10.293Z,37.28
2018-02-24T11:31:39.238Z,39.30
2018-02-24T11:34:09.371Z,36.60
2018-02-24T11:36:39.589Z,35.60
2018-02-24T11:39:08.475Z,35.38
2018-02-24T11:41:37.200Z,36.55
2018-02-24T11:44:07.286Z,35.45
2018-02-24T11:46:36.260Z,36.15
2018-02-24T11:49:05.138Z,34.75
2018-02-24T11:51:33.823Z,36.60
2018-02-24T11:54:04.029Z,36.05
2018-02-24T11:56:33.628Z,37.53
2018-02-24T11:59:02.337Z,33.08
2018-02-24T12:01:31.094Z,36.08
2018-02-24T12:03:59.846Z,34.53
2018-02-24T12:06:28.535Z,33.20
2018-02-24T12:08:58.028Z,32.58
2018-02-24T12:11:27.378Z,32.15
2018-02-24T12:13:56.721Z,33.95
2018-02-24T12:16:26.074Z,32.08
2018-02-24T12:18:54.845Z,32.28
2018-02-24T12:21:23.543Z,31.00
2018-02-24T12:23:52.371Z,29.98
2018-02-24T12:26:21.845Z,29.95
2018-02-24T12:28:50.236Z,32.60
2018-02-24T12:31:18.929Z,30.73
2018-02-24T12:33:49.478Z,30.67
2018-02-24T12:36:18.834Z,29.50
2018-02-24T12:38:47.370Z,31.70
2018-02-24T12:41:16.231Z,30.12
2018-02-24T12:43:44.974Z,29.80
2018-02-24T12:46:13.630Z,29.55
2018-02-24T12:48:42.653Z,31.92
2018-02-24T12:51:11.312Z,30.23
2018-02-24T12:53:40.785Z,33.80
2018-02-24T12:56:09.504Z,33.00
2018-02-24T12:58:38.942Z,30.33
2018-02-24T13:01:10.206Z,30.70
2018-02-24T13:03:38.948Z,31.15
2018-02-24T13:06:09.018Z,29.17
2018-02-24T13:08:38.365Z,32.03
2018-02-24T13:11:10.011Z,30.75
2018-02-24T13:13:39.778Z,34.10
2018-02-24T13:16:08.771Z,30.33
2018-02-24T13:18:37.770Z,31.35
2018-02-24T13:23:46.136Z,33.03
2018-02-24T13:26:15.195Z,29.48
2018-02-24T13:28:44.290Z,32.17
2018-02-24T13:31:13.152Z,31.90
2018-02-24T13:33:41.705Z,32.28
2018-02-24T13:36:11.347Z,30.02
2018-02-24T13:41:32.317Z,28.75
2018-02-24T13:44:01.049Z,32.60
2018-02-24T13:46:34.968Z,28.05
2018-02-24T13:49:04.308Z,28.38
2018-02-24T13:51:33.770Z,27.95
2018-02-24T13:54:03.015Z,27.55
2018-02-24T13:56:31.711Z,29.35
2018-02-24T13:59:00.394Z,29.42
2018-02-24T14:11:44.715Z,25.70
2018-02-24T14:14:13.918Z,27.45
2018-02-24T14:16:42.796Z,26.42
2018-02-24T14:19:11.361Z,28.12
2018-02-24T14:21:40.174Z,28.00
2018-02-24T14:24:08.857Z,28.95
2018-02-24T14:26:37.874Z,27.52
2018-02-24T14:29:07.004Z,28.50
2018-02-24T14:31:36.238Z,28.48
2018-02-24T14:34:04.984Z,26.65
2018-02-24T14:36:34.506Z,24.40
2018-02-24T14:39:03.024Z,27.13
2018-02-24T15:12:59.137Z,35.65
2018-02-24T15:15:28.626Z,33.65
2018-02-24T15:17:57.381Z,31.23
2018-02-24T15:20:25.947Z,33.85
2018-02-24T15:22:55.206Z,32.28
2018-02-24T15:25:23.723Z,33.30
2018-02-24T15:27:53.944Z,31.77
2018-02-24T15:30:22.973Z,32.47
2018-02-24T15:32:52.699Z,34.47
2018-02-24T15:35:21.540Z,31.23
2018-02-24T15:37:53.578Z,31.90
2018-02-24T15:40:23.391Z,33.03
2018-02-24T15:42:52.992Z,34.03
2018-02-24T15:45:21.728Z,34.53
2018-02-24T15:47:51.427Z,33.83
2018-02-24T15:50:22.477Z,33.17
2018-02-24T15:52:51.251Z,32.78
2018-02-24T15:55:20.773Z,31.65
2018-02-24T15:57:49.533Z,32.95
2018-02-24T16:00:18.201Z,32.53
2018-02-24T16:02:46.909Z,34.20
2018-02-24T16:05:15.598Z,33.38
2018-02-24T16:07:44.339Z,32.53
2018-02-24T16:10:13.160Z,31.12
2018-02-24T16:12:41.699Z,34.65
2018-02-24T16:15:10.373Z,32.88
2018-02-24T16:17:39.074Z,32.85
2018-02-24T16:20:07.757Z,32.97
2018-02-24T16:22:36.442Z,34.30
2018-02-24T16:25:04.951Z,31.90
2018-02-24T16:27:33.733Z,32.63
2018-02-24T16:30:02.480Z,31.50
2018-02-24T16:32:31.928Z,30.50
2018-02-24T16:35:02.676Z,32.92
2018-02-24T16:37:31.538Z,34.28
2018-02-24T16:40:00.232Z,30.98
2018-02-24T16:42:29.305Z,32.40
2018-02-24T16:44:58.224Z,29.85
2018-02-24T16:47:28.330Z,30.50
2018-02-24T16:49:58.681Z,31.37
2018-02-24T16:52:28.437Z,31.00
2018-02-24T16:54:58.995Z,30.67
2018-02-24T16:57:28.536Z,29.87
2018-02-24T16:59:57.323Z,30.62
2018-02-24T17:02:26.051Z,29.65
2018-02-24T17:04:54.752Z,31.50
2018-02-24T17:07:24.710Z,31.00
2018-02-24T17:09:54.438Z,31.27
2018-02-24T17:12:23.991Z,31.75
2018-02-24T17:18:32.757Z,29.50
2018-02-24T17:21:07.521Z,30.70
2018-02-24T17:23:39.014Z,31.52
2018-02-24T17:26:12.168Z,30.48
2018-02-24T17:31:29.844Z,31.52
2018-02-24T17:36:35.204Z,30.27
2018-02-24T17:39:14.828Z,32.28
2018-02-24T17:41:45.590Z,31.35
2018-02-24T17:44:20.992Z,31.85
2018-02-24T17:50:38.225Z,30.20
2018-02-24T17:53:07.224Z,31.48
2018-02-24T17:55:36.886Z,31.62
2018-02-24T17:58:06.743Z,29.95
2018-02-24T18:00:35.474Z,31.95
2018-02-24T18:03:04.970Z,32.92
2018-02-24T18:08:11.910Z,31.42
2018-02-24T18:10:41.206Z,31.87
2018-02-24T18:13:10.722Z,31.30
2018-02-24T18:15:39.478Z,29.40
2018-02-24T18:18:08.372Z,26.77
2018-02-24T18:20:37.623Z,20.30
2018-02-24T18:23:06.861Z,19.25
2018-02-24T18:25:36.169Z,18.42
2018-02-24T18:28:06.215Z,17.05
2018-02-24T18:44:02.331Z,15.85
2018-02-24T18:46:31.903Z,12.80
2018-02-24T18:49:01.010Z,14.75
2018-02-24T18:51:29.958Z,13.80
2018-02-24T18:54:01.585Z,17.35
2018-02-24T18:59:10.426Z,15.00
2018-02-24T19:01:39.928Z,14.70
2018-02-24T19:04:09.709Z,13.00
2018-02-24T19:06:39.429Z,14.80
2018-02-24T19:09:08.485Z,12.40
2018-02-24T19:11:37.352Z,12.82
2018-02-24T19:14:05.998Z,14.05
2018-02-24T19:16:34.862Z,12.93
2018-02-24T19:19:03.626Z,11.45
2018-02-24T19:21:32.236Z,10.55
2018-02-24T19:24:01.161Z,10.52
2018-02-24T19:26:29.946Z,9.45
2018-02-24T19:28:58.697Z,8.25
2018-02-24T19:31:27.464Z,9.80
2018-02-24T19:33:56.149Z,9.10
2018-02-24T19:36:25.003Z,8.18
2018-02-24T19:38:53.775Z,10.40
2018-02-24T19:41:23.271Z,8.25
2018-02-24T19:43:52.022Z,7.10
2018-02-24T19:46:20.722Z,8.15
2018-02-24T19:48:49.422Z,9.23
2018-02-24T19:51:18.177Z,8.48
2018-02-24T19:53:54.485Z,9.60
2018-02-24T19:56:23.235Z,8.18
2018-02-24T19:58:52.056Z,7.85
2018-02-24T20:01:20.736Z,9.50
2018-02-24T20:03:49.418Z,8.93
2018-02-24T20:06:18.165Z,9.32
2018-02-24T20:08:47.948Z,10.20
2018-02-24T20:11:16.943Z,8.95
2018-02-24T20:13:46.482Z,9.52
2018-02-24T20:16:15.989Z,8.73
2018-02-24T20:18:44.204Z,10.18
2018-02-24T20:21:12.915Z,9.00
2018-02-24T20:23:44.471Z,7.10
2018-02-24T20:26:13.546Z,7.97
2018-02-24T20:28:43.042Z,8.57
2018-02-24T20:31:12.095Z,8.10
2018-02-24T20:33:42.451Z,9.85
2018-02-24T20:36:11.434Z,11.43
2018-02-24T20:38:40.430Z,9.00
2018-02-24T20:41:09.202Z,9.45
2018-02-24T20:43:39.003Z,9.43
2018-02-24T20:46:07.646Z,9.65
2018-02-24T20:48:36.776Z,8.10
2018-02-24T20:51:06.006Z,9.73
2018-02-24T20:53:35.835Z,8.23
2018-02-24T20:56:04.821Z,11.07
2018-02-24T20:58:34.526Z,9.23
2018-02-24T21:01:04.041Z,7.47
2018-02-24T21:03:32.687Z,8.70
2018-02-24T21:06:01.713Z,8.55
2018-02-24T21:08:32.292Z,6.95
2018-02-24T21:11:01.493Z,7.22
2018-02-24T21:13:30.359Z,6.30
2018-02-24T21:15:59.133Z,6.95
2018-02-24T21:18:28.727Z,7.12
2018-02-24T21:20:58.198Z,5.90
2018-02-24T21:23:27.233Z,7.25
2018-02-24T21:25:57.655Z,6.80
2018-02-24T21:28:26.792Z,8.63
2018-02-24T21:30:55.852Z,6.35
2018-02-24T21:33:25.593Z,11.68
2018-02-24T21:35:54.194Z,7.55
2018-02-24T21:38:22.922Z,6.87
2018-02-24T21:40:51.895Z,6.50
2018-02-24T21:43:20.751Z,7.65
2018-02-24T21:45:49.511Z,7.37
2018-02-24T21:48:18.298Z,5.35
2018-02-24T21:50:47.790Z,5.40
2018-02-24T21:53:16.924Z,5.12
2018-02-24T21:58:23.285Z,4.35
2018-02-24T22:00:53.062Z,4.57
2018-02-24T22:03:23.010Z,5.25
2018-02-24T22:05:52.957Z,4.97
2018-02-24T22:08:22.388Z,4.85
2018-02-24T22:10:52.270Z,4.87
2018-02-24T22:13:22.063Z,4.40
2018-02-24T22:15:51.612Z,4.95
2018-02-24T22:18:21.534Z,5.32
2018-02-24T22:20:50.595Z,3.58
2018-02-24T22:23:27.308Z,4.93
2018-02-24T22:25:57.971Z,4.95
2018-02-24T22:28:37.141Z,4.15
2018-02-24T22:31:06.648Z,5.10
2018-02-24T22:33:36.315Z,4.20
2018-02-24T22:36:05.303Z,3.80
2018-02-24T22:38:34.263Z,3.95
2018-02-24T22:41:03.077Z,4.55
2018-02-24T22:43:32.517Z,4.00
2018-02-24T22:46:02.454Z,3.72
2018-02-24T22:48:37.165Z,3.30
2018-02-24T22:51:06.264Z,4.22
2018-02-24T22:53:35.732Z,4.40
2018-02-24T22:56:04.809Z,4.28
2018-02-24T22:58:34.306Z,3.67
2018-02-24T23:01:04.020Z,4.93
2018-02-24T23:03:33.175Z,4.07
2018-02-24T23:06:02.639Z,3.62
2018-02-24T23:08:31.699Z,4.97
2018-02-24T23:11:01.538Z,3.53
2018-02-24T23:13:30.976Z,5.37
2018-02-24T23:15:59.921Z,4.43
2018-02-24T23:18:28.808Z,4.15
2018-02-24T23:20:58.598Z,5.03
2018-02-24T23:23:27.375Z,4.97
2018-02-24T23:25:56.116Z,4.12
2018-02-24T23:28:24.896Z,4.37
2018-02-24T23:30:55.429Z,3.47
2018-02-24T23:33:24.467Z,4.05
2018-02-24T23:35:53.363Z,4.32
2018-02-24T23:38:22.097Z,4.50
2018-02-24T23:40:50.783Z,5.35
2018-02-24T23:43:20.301Z,5.00
2018-02-24T23:45:49.050Z,4.93
2018-02-24T23:48:18.454Z,4.90
2018-02-24T23:50:47.165Z,3.65
2018-02-24T23:53:15.854Z,3.95
2018-02-24T23:55:45.166Z,4.03
2018-02-24T23:58:14.895Z,3.78
